Index of /ubuntu/dists

[ICO]NameLast modifiedSizeDescription

[PARENTDIR]Parent Directory  -  
[DIR]bionic-20200902192522356055843/2020-09-02 19:25 -  
[DIR]bionic-20240725091429615557224/2024-07-25 09:14 -  
[DIR]bionic/2024-07-25 09:14 -  
[DIR]disco-20200902192528815424380/2020-09-02 19:25 -  
[DIR]disco-20210120224233693711281/2021-01-20 22:42 -  
[DIR]disco-20240725091444095023413/2024-07-25 09:14 -  
[DIR]disco/2024-07-25 09:14 -  
[DIR]eoan-20200902192528960579334/2020-09-02 19:25 -  
[DIR]eoan-20210120224233821013190/2021-01-20 22:42 -  
[DIR]eoan-20240725091445040385581/2024-07-25 09:14 -  
[DIR]eoan/2024-07-25 09:14 -  
[DIR]focal-20240725091402778732008/2024-07-25 09:14 -  
[DIR]focal/2024-07-25 09:14 -  
[DIR]groovy-20200902192528319778664/2020-09-02 19:25 -  
[DIR]groovy-20210120224232474958767/2021-01-20 22:42 -  
[DIR]groovy-20240725091437694144766/2024-07-25 09:14 -  
[DIR]groovy/2024-07-25 09:14 -  
[DIR]hirsute-20210120224233946477129/2021-01-20 22:42 -  
[DIR]hirsute-20240725091447373137892/2024-07-25 09:14 -  
[DIR]hirsute/2024-07-25 09:14 -  
[DIR]impish-20240725091434776421727/2024-07-25 09:14 -  
[DIR]impish/2024-07-25 09:14 -  
[DIR]jammy-20240725091406294247594/2024-07-25 09:14 -  
[DIR]jammy/2024-07-25 09:14 -  
[DIR]kinetic-20240725091443471907095/2024-07-25 09:14 -  
[DIR]kinetic/2024-07-25 09:14 -  
[DIR]lucid-20200902192528638444552/2020-09-02 19:25 -  
[DIR]lucid-20210120224233547057864/2021-01-20 22:42 -  
[DIR]lucid-20240725091441310945966/2024-07-25 09:14 -  
[DIR]lucid/2024-07-25 09:14 -  
[DIR]lunar-20240725091446890019538/2024-07-25 09:14 -  
[DIR]lunar/2024-07-25 09:14 -  
[DIR]mantic-20240725091429185427703/2024-07-25 09:14 -  
[DIR]mantic/2024-07-25 09:14 -  
[DIR]noble-20240725091402391240184/2024-07-25 09:14 -  
[DIR]noble/2024-07-25 09:14 -  
[DIR]precise-20200902192528478354380/2020-09-02 19:25 -  
[DIR]precise-20210120224233387424474/2021-01-20 22:42 -  
[DIR]precise-20240725091439355395772/2024-07-25 09:14 -  
[DIR]precise/2024-07-25 09:14 -  
[DIR]trusty-20240115201421539592128/2024-01-15 20:14 -  
[DIR]trusty-20240725091427044934279/2024-07-25 09:14 -  
[DIR]trusty/2024-07-25 09:14 -  
[DIR]xenial-20200902192526596896619/2020-09-02 19:25 -  
[DIR]xenial-20210120224232220147644/2021-01-20 22:42 -  
[DIR]xenial-20240725091435807362976/2024-07-25 09:14 -  
[DIR]xenial/2024-07-25 09:14 -  

Apache/2.4.29 (Ubuntu) Server at repository.chr.istoph.de Port 80